createdAt,value
2023-04-14T00:00:48.184Z,0.00
2023-04-14T00:01:48.169Z,0.00
2023-04-14T00:02:48.223Z,0.00
2023-04-14T00:03:48.353Z,0.00
2023-04-14T00:04:48.178Z,0.00
2023-04-14T00:05:48.122Z,0.00
2023-04-14T00:06:48.107Z,0.00
2023-04-14T00:07:48.090Z,0.00
2023-04-14T00:08:48.090Z,0.00
2023-04-14T00:09:48.075Z,0.00
2023-04-14T00:10:48.063Z,0.00
2023-04-14T00:11:48.047Z,0.00
2023-04-14T00:12:48.062Z,0.00
2023-04-14T00:13:48.028Z,0.00
2023-04-14T00:14:48.046Z,0.00
2023-04-14T00:15:48.019Z,0.00
2023-04-14T00:16:48.094Z,0.00
2023-04-14T00:17:48.044Z,0.00
2023-04-14T00:18:47.971Z,0.00
2023-04-14T00:19:47.969Z,0.00
2023-04-14T00:20:47.956Z,0.00
2023-04-14T00:21:47.956Z,0.00
2023-04-14T00:22:47.937Z,0.00
2023-04-14T00:23:47.926Z,0.00
2023-04-14T00:24:48.116Z,0.00
2023-04-14T04:34:08.350Z,0.00
2023-04-14T04:35:08.332Z,0.00
2023-04-14T04:36:08.323Z,0.00
2023-04-14T04:47:08.207Z,5.62
2023-04-14T04:49:08.184Z,5.62
2023-04-14T04:50:08.192Z,5.62
2023-04-14T04:51:08.170Z,11.25
2023-04-14T04:52:08.160Z,11.25
2023-04-14T04:53:08.141Z,11.25
2023-04-14T04:54:08.145Z,11.25
2023-04-14T04:55:08.223Z,11.25
2023-04-14T04:56:14.136Z,11.25
2023-04-14T04:57:14.109Z,16.87
2023-04-14T04:58:08.112Z,16.87
2023-04-14T04:59:08.090Z,16.87
2023-04-14T05:00:08.295Z,16.87
2023-04-14T05:01:08.107Z,22.50
2023-04-14T05:02:08.133Z,22.50
2023-04-14T05:03:08.179Z,22.50
2023-04-14T05:04:08.273Z,22.50
2023-04-14T05:05:08.236Z,22.50
2023-04-14T05:06:08.020Z,28.12
2023-04-14T05:07:08.003Z,28.12
2023-04-14T05:08:07.998Z,28.12
2023-04-14T05:09:08.011Z,28.12
2023-04-14T05:10:08.182Z,33.75
2023-04-14T05:11:07.979Z,33.75
2023-04-14T05:12:07.960Z,33.75
2023-04-14T05:13:07.943Z,39.37
2023-04-14T05:14:07.936Z,39.37
2023-04-14T05:15:07.921Z,39.37
2023-04-14T05:16:07.986Z,45.00
2023-04-14T05:17:07.903Z,45.00
2023-04-14T05:18:08.131Z,50.62
2023-04-14T05:19:07.890Z,50.62
2023-04-14T05:20:07.896Z,50.62
2023-04-14T05:21:07.866Z,56.25
2023-04-14T05:22:13.867Z,56.25
2023-04-14T05:23:07.834Z,61.87
2023-04-14T05:24:07.836Z,67.50
2023-04-14T05:25:07.819Z,67.50
2023-04-14T05:26:31.107Z,67.50
2023-04-14T05:27:14.210Z,73.12
2023-04-14T05:28:08.840Z,73.12
2023-04-14T05:29:13.783Z,73.12
2023-04-14T05:30:07.792Z,73.12
2023-04-14T05:31:07.771Z,78.75
2023-04-14T05:32:07.757Z,78.75
2023-04-14T05:33:07.750Z,78.75
2023-04-14T05:34:07.977Z,78.75
2023-04-14T05:35:07.718Z,84.37
2023-04-14T05:36:07.765Z,84.37
2023-04-14T05:37:07.893Z,84.37
2023-04-14T05:38:07.695Z,84.37
2023-04-14T05:39:07.682Z,84.37
2023-04-14T05:40:09.719Z,78.75
2023-04-14T05:41:13.672Z,84.37
2023-04-14T05:42:07.638Z,84.37
2023-04-14T05:43:07.654Z,84.37
2023-04-14T05:44:07.628Z,90.00
2023-04-14T05:45:07.625Z,90.00
2023-04-14T05:46:13.627Z,90.00
2023-04-14T05:47:07.609Z,95.62
2023-04-14T05:48:07.766Z,95.62
2023-04-14T05:49:07.574Z,95.62
2023-04-14T05:50:07.584Z,101.25
2023-04-14T05:51:07.562Z,101.25
2023-04-14T05:52:07.550Z,106.87
2023-04-14T05:53:07.538Z,112.50
2023-04-14T05:54:07.522Z,101.25
2023-04-14T05:55:07.528Z,101.25
2023-04-14T05:56:07.497Z,101.25
2023-04-14T05:57:07.503Z,101.25
2023-04-14T05:58:07.473Z,106.87
2023-04-14T05:59:07.476Z,106.87
2023-04-14T06:00:07.703Z,106.87
2023-04-14T06:01:07.451Z,112.50
2023-04-14T06:02:07.714Z,112.50
2023-04-14T06:03:07.594Z,112.50
2023-04-14T06:04:07.631Z,112.50
2023-04-14T06:05:07.545Z,118.12
2023-04-14T06:06:07.425Z,118.12
2023-04-14T06:07:07.392Z,118.12
2023-04-14T06:08:07.371Z,123.75
2023-04-14T06:09:07.371Z,123.75
2023-04-14T06:10:07.342Z,123.75
2023-04-14T06:11:07.339Z,123.75
2023-04-14T06:12:07.536Z,123.75
2023-04-14T06:13:07.319Z,123.75
2023-04-14T06:14:07.329Z,129.37
2023-04-14T06:15:07.306Z,129.37
2023-04-14T06:16:07.386Z,129.37
2023-04-14T06:17:07.280Z,129.37
2023-04-14T06:18:07.266Z,135.00
2023-04-14T06:19:07.266Z,135.00
2023-04-14T06:20:07.251Z,135.00
2023-04-14T06:21:07.261Z,140.62
2023-04-14T06:22:07.453Z,140.62
2023-04-14T06:23:07.222Z,146.25
2023-04-14T06:24:07.201Z,146.25
2023-04-14T06:25:07.221Z,146.25
2023-04-14T06:26:07.193Z,146.25
2023-04-14T06:27:07.181Z,151.87
2023-04-14T06:28:07.155Z,157.50
2023-04-14T06:29:07.154Z,157.50
2023-04-14T06:30:07.132Z,163.12
2023-04-14T06:31:07.138Z,168.75
2023-04-14T06:32:07.181Z,174.37
2023-04-14T06:33:07.181Z,174.37
2023-04-14T06:34:07.093Z,180.00
2023-04-14T06:35:07.098Z,174.37
2023-04-14T06:36:07.102Z,163.12
2023-04-14T06:37:07.102Z,168.75
2023-04-14T06:38:07.084Z,163.12
2023-04-14T06:39:07.045Z,174.37
2023-04-14T06:40:07.027Z,174.37
2023-04-14T06:41:07.037Z,174.37
2023-04-14T06:42:07.012Z,163.12
2023-04-14T06:43:07.039Z,168.75
2023-04-14T06:44:06.986Z,174.37
2023-04-14T06:45:07.183Z,174.37
2023-04-14T06:46:07.022Z,174.37
2023-04-14T06:47:07.169Z,180.00
2023-04-14T06:48:07.043Z,180.00
2023-04-14T06:49:06.950Z,180.00
2023-04-14T06:50:06.926Z,174.37
2023-04-14T06:51:06.928Z,174.37
2023-04-14T06:52:07.307Z,157.50
2023-04-14T06:53:06.899Z,174.37
2023-04-14T06:54:06.908Z,174.37
2023-04-14T06:55:12.887Z,174.37
2023-04-14T06:56:06.865Z,174.37
2023-04-14T06:57:06.880Z,174.37
2023-04-14T06:58:07.252Z,174.37
2023-04-14T06:59:06.839Z,168.75
2023-04-14T07:00:06.826Z,168.75
2023-04-14T07:01:06.871Z,168.75
2023-04-14T07:02:06.831Z,163.12
2023-04-14T07:03:06.911Z,163.12
2023-04-14T07:04:08.037Z,163.12
2023-04-14T07:05:06.916Z,157.50
2023-04-14T07:06:41.452Z,157.50
2023-04-14T07:07:41.437Z,140.62
2023-04-14T07:08:41.433Z,140.62
2023-04-14T07:09:41.752Z,157.50
2023-04-14T07:10:41.400Z,157.50
2023-04-14T07:11:41.407Z,157.50
2023-04-14T07:12:41.379Z,151.87
2023-04-14T07:13:47.387Z,157.50
2023-04-14T07:14:41.378Z,157.50
2023-04-14T07:15:41.401Z,157.50
2023-04-14T07:16:41.334Z,157.50
2023-04-14T07:17:41.541Z,157.50
2023-04-14T07:18:41.313Z,163.12
2023-04-14T07:19:41.307Z,168.75
2023-04-14T07:20:41.288Z,168.75
2023-04-14T07:21:41.291Z,168.75
2023-04-14T07:22:41.283Z,168.75
2023-04-14T07:23:41.267Z,163.12
2023-04-14T07:24:41.247Z,163.12
2023-04-14T07:25:41.272Z,163.12
2023-04-14T07:26:41.227Z,163.12
2023-04-14T07:27:47.275Z,168.75
2023-04-14T07:28:42.266Z,168.75
2023-04-14T07:29:41.409Z,168.75
2023-04-14T07:30:41.186Z,168.75
2023-04-14T07:31:47.416Z,168.75
2023-04-14T07:32:41.260Z,157.50
2023-04-14T07:33:41.160Z,174.37
2023-04-14T07:34:41.150Z,168.75
2023-04-14T07:35:48.212Z,168.75
2023-04-14T07:36:48.181Z,180.00
2023-04-14T07:37:41.119Z,180.00
2023-04-14T07:39:23.970Z,180.00
2023-04-14T07:40:23.857Z,180.00
2023-04-14T07:41:23.870Z,185.62
2023-04-14T07:42:23.840Z,180.00
2023-04-14T07:43:29.844Z,185.62
2023-04-14T07:44:23.816Z,185.62
2023-04-14T07:45:23.815Z,185.62
2023-04-14T07:46:23.927Z,185.62
2023-04-14T07:47:23.810Z,185.62
2023-04-14T07:48:23.769Z,191.25
2023-04-14T07:49:23.764Z,191.25
2023-04-14T07:50:23.743Z,191.25
2023-04-14T07:51:23.742Z,191.25
2023-04-14T07:52:23.730Z,191.25
2023-04-14T07:53:23.726Z,196.87
2023-04-14T07:54:23.702Z,196.87
2023-04-14T07:55:25.441Z,196.87
2023-04-14T07:56:23.882Z,202.50
2023-04-14T07:57:23.712Z,202.50
2023-04-14T07:58:26.143Z,202.50
2023-04-14T07:59:23.658Z,202.50
2023-04-14T08:00:23.649Z,202.50
2023-04-14T08:01:23.648Z,202.50
2023-04-14T08:02:23.806Z,202.50
2023-04-14T08:03:23.790Z,208.12
2023-04-14T08:04:23.616Z,208.12
2023-04-14T08:05:23.611Z,208.12
2023-04-14T08:06:23.582Z,213.75
2023-04-14T08:07:23.584Z,213.75
2023-04-14T08:08:23.559Z,213.75
2023-04-14T08:09:23.553Z,213.75
2023-04-14T08:10:23.740Z,219.37
2023-04-14T08:11:23.536Z,219.37
2023-04-14T08:12:23.520Z,225.00
2023-04-14T08:13:23.546Z,225.00
2023-04-14T08:14:23.496Z,225.00
2023-04-14T08:15:23.489Z,225.00
2023-04-14T08:16:23.493Z,230.62
2023-04-14T08:17:23.488Z,230.62
2023-04-14T08:18:23.461Z,236.25
2023-04-14T08:19:23.464Z,225.00
2023-04-14T08:20:23.427Z,236.25
2023-04-14T08:21:23.483Z,241.87
2023-04-14T08:22:23.413Z,225.00
2023-04-14T08:23:29.445Z,241.87
2023-04-14T08:24:23.387Z,247.50
2023-04-14T08:25:23.431Z,247.50
2023-04-14T08:26:23.366Z,236.25
2023-04-14T08:27:23.372Z,236.25
2023-04-14T08:28:23.342Z,247.50
2023-04-14T08:29:23.362Z,247.50
2023-04-14T08:30:23.431Z,258.75
2023-04-14T08:31:23.396Z,247.50
2023-04-14T08:32:23.579Z,275.62
2023-04-14T08:33:23.296Z,275.62
2023-04-14T08:34:28.687Z,264.37
2023-04-14T08:35:38.315Z,281.25
2023-04-14T08:36:24.907Z,281.25
2023-04-14T08:37:23.266Z,281.25
2023-04-14T08:38:23.234Z,286.87
2023-04-14T08:39:23.239Z,292.50
2023-04-14T08:40:23.229Z,298.12
2023-04-14T08:41:23.213Z,298.12
2023-04-14T08:42:23.194Z,303.75
2023-04-14T08:43:23.192Z,303.75
2023-04-14T08:44:23.189Z,315.00
2023-04-14T08:45:23.236Z,320.62
2023-04-14T08:46:23.260Z,326.25
2023-04-14T08:47:23.386Z,331.87
2023-04-14T08:48:25.110Z,331.87
2023-04-14T08:49:23.131Z,331.87
2023-04-14T08:50:23.154Z,337.50
2023-04-14T08:51:23.122Z,343.12
2023-04-14T08:52:23.194Z,343.12
2023-04-14T08:53:23.111Z,348.75
2023-04-14T08:54:23.071Z,343.12
2023-04-14T08:55:23.072Z,343.12
2023-04-14T08:56:23.053Z,348.75
2023-04-14T08:57:23.047Z,354.37
2023-04-14T08:58:23.034Z,343.12
2023-04-14T08:59:23.028Z,348.75
2023-04-14T09:00:23.061Z,360.00
2023-04-14T09:01:23.079Z,365.62
2023-04-14T09:02:23.107Z,365.62
2023-04-14T09:03:23.157Z,360.00
2023-04-14T09:04:29.201Z,348.75
2023-04-14T09:05:22.981Z,354.37
2023-04-14T09:06:22.952Z,354.37
2023-04-14T09:07:22.951Z,354.37
2023-04-14T09:08:22.931Z,348.75
2023-04-14T09:10:09.760Z,376.87
2023-04-14T09:11:09.746Z,382.50
2023-04-14T09:12:09.717Z,393.75
2023-04-14T09:13:09.727Z,410.62
2023-04-14T09:14:09.701Z,427.50
2023-04-14T09:15:11.774Z,410.62
2023-04-14T09:16:09.689Z,410.62
2023-04-14T09:17:09.778Z,438.75
2023-04-14T09:18:09.915Z,438.75
2023-04-14T09:19:09.650Z,450.00
2023-04-14T09:20:38.077Z,376.87
2023-04-14T09:21:29.366Z,506.25
2023-04-14T09:22:11.065Z,320.62
2023-04-14T09:23:09.815Z,421.87
2023-04-14T09:24:11.606Z,455.62
2023-04-14T09:25:09.599Z,427.50
2023-04-14T09:26:09.584Z,388.12
2023-04-14T09:27:09.569Z,416.25
2023-04-14T09:28:09.565Z,444.37
2023-04-14T09:29:09.584Z,438.75
2023-04-14T09:30:09.581Z,433.12
2023-04-14T09:31:09.554Z,433.12
2023-04-14T09:32:09.535Z,450.00
2023-04-14T09:33:09.565Z,466.87
2023-04-14T09:34:09.566Z,489.37
2023-04-14T09:35:09.484Z,523.12
2023-04-14T09:36:09.483Z,506.25
2023-04-14T09:37:09.474Z,444.37
2023-04-14T09:38:09.665Z,613.12
2023-04-14T09:39:09.660Z,568.12
2023-04-14T09:40:09.443Z,523.12
2023-04-14T09:41:09.421Z,506.25
2023-04-14T09:42:09.429Z,500.62
2023-04-14T09:43:09.404Z,511.87
2023-04-14T09:44:09.402Z,495.00
2023-04-14T09:45:09.384Z,517.50
2023-04-14T09:46:11.521Z,438.75
2023-04-14T09:47:09.372Z,613.12
2023-04-14T09:48:09.361Z,663.75
2023-04-14T09:49:09.379Z,703.12
2023-04-14T09:50:09.352Z,686.25
2023-04-14T09:51:09.345Z,646.87
2023-04-14T09:52:09.319Z,382.50
2023-04-14T09:53:09.307Z,360.00
2023-04-14T09:54:09.298Z,433.12
2023-04-14T09:55:09.287Z,354.37
2023-04-14T09:56:15.293Z,382.50
2023-04-14T09:57:09.273Z,472.50
2023-04-14T09:58:15.277Z,517.50
2023-04-14T09:59:09.247Z,568.12
2023-04-14T10:00:09.244Z,585.00
2023-04-14T10:01:09.269Z,427.50
2023-04-14T10:02:09.573Z,573.75
2023-04-14T10:03:09.503Z,568.12
2023-04-14T10:04:09.195Z,562.50
2023-04-14T10:05:09.246Z,348.75
2023-04-14T10:06:09.180Z,354.37
2023-04-14T10:07:09.168Z,523.12
2023-04-14T10:08:09.165Z,523.12
2023-04-14T10:09:15.349Z,506.25
2023-04-14T10:10:15.148Z,506.25
2023-04-14T10:11:09.124Z,590.62
2023-04-14T10:12:10.070Z,523.12
2023-04-14T10:13:09.108Z,427.50
2023-04-14T10:14:09.099Z,455.62
2023-04-14T10:15:09.099Z,669.37
2023-04-14T10:16:09.120Z,511.87
2023-04-14T10:17:09.073Z,630.00
2023-04-14T10:18:09.122Z,388.12
2023-04-14T10:19:09.049Z,506.25
2023-04-14T10:20:09.051Z,590.62
2023-04-14T10:21:09.056Z,630.00
2023-04-14T10:22:09.023Z,646.87
2023-04-14T10:23:53.084Z,545.62
2023-04-14T10:24:53.058Z,416.25
2023-04-14T10:25:52.859Z,528.75
2023-04-14T10:26:52.846Z,624.37
2023-04-14T10:27:52.836Z,630.00
2023-04-14T10:28:52.830Z,613.12
2023-04-14T10:29:52.812Z,596.25
2023-04-14T10:30:52.799Z,618.75
2023-04-14T10:31:52.812Z,641.25
2023-04-14T10:32:52.865Z,663.75
2023-04-14T10:33:52.779Z,658.12
2023-04-14T10:34:52.758Z,450.00
2023-04-14T10:35:52.754Z,466.87
2023-04-14T10:36:52.763Z,483.75
2023-04-14T10:37:52.739Z,759.37
2023-04-14T10:38:52.717Z,776.25
2023-04-14T10:39:52.718Z,776.25
2023-04-14T10:40:58.713Z,753.75
2023-04-14T10:41:52.695Z,759.37
2023-04-14T10:42:52.681Z,770.62
2023-04-14T10:43:52.676Z,759.37
2023-04-14T10:44:52.871Z,720.00
2023-04-14T10:45:52.857Z,725.62
2023-04-14T10:46:52.708Z,748.12
2023-04-14T10:47:52.688Z,821.25
2023-04-14T10:48:52.620Z,888.75
2023-04-14T10:49:52.618Z,956.25
2023-04-14T10:50:52.595Z,961.87
2023-04-14T10:51:52.599Z,916.87
2023-04-14T10:52:52.640Z,523.12
2023-04-14T10:53:52.575Z,579.37
2023-04-14T10:54:52.567Z,585.00
2023-04-14T10:55:52.730Z,714.37
2023-04-14T10:56:52.539Z,849.37
2023-04-14T10:57:52.544Z,748.12
2023-04-14T10:58:52.520Z,776.25
2023-04-14T10:59:52.720Z,787.50
2023-04-14T11:00:52.534Z,2756.25
2023-04-14T11:01:52.792Z,2891.25
2023-04-14T11:02:52.610Z,2700.00
2023-04-14T11:03:52.582Z,2514.37
2023-04-14T11:04:52.461Z,2064.37
2023-04-14T11:05:52.672Z,1051.87
2023-04-14T11:06:52.460Z,945.00
2023-04-14T11:07:52.441Z,2587.50
2023-04-14T11:08:52.448Z,506.25
2023-04-14T11:09:52.419Z,523.12
2023-04-14T11:10:52.423Z,607.50
2023-04-14T11:11:52.412Z,787.50
2023-04-14T11:12:52.392Z,765.00
2023-04-14T11:13:52.384Z,770.62
2023-04-14T11:14:52.368Z,2857.50
2023-04-14T11:15:52.368Z,3200.62
2023-04-14T11:17:02.730Z,3178.12
2023-04-14T11:17:53.410Z,3121.87
2023-04-14T11:18:52.328Z,3099.37
2023-04-14T11:19:52.327Z,3155.62
2023-04-14T11:20:52.320Z,3189.37
2023-04-14T11:21:52.307Z,3358.12
2023-04-14T11:22:52.297Z,686.25
2023-04-14T11:23:52.290Z,1850.62
2023-04-14T11:24:52.491Z,1006.87
2023-04-14T11:25:52.481Z,652.50
2023-04-14T11:26:52.266Z,3436.87
2023-04-14T11:27:52.578Z,2013.75
2023-04-14T11:28:52.234Z,3307.50
2023-04-14T11:29:52.233Z,3273.75
2023-04-14T11:30:52.213Z,3290.62
2023-04-14T11:31:52.487Z,3335.62
2023-04-14T11:32:52.344Z,3245.62
2023-04-14T11:33:52.396Z,3161.25
2023-04-14T11:34:52.176Z,3166.87
2023-04-14T11:35:52.185Z,3155.62
2023-04-14T11:36:52.360Z,3183.75
2023-04-14T11:37:58.164Z,3217.50
2023-04-14T11:38:52.147Z,3206.25
2023-04-14T11:39:52.146Z,3195.00
2023-04-14T11:40:52.153Z,3127.50
2023-04-14T11:41:52.125Z,3048.75
2023-04-14T11:42:52.306Z,3015.00
2023-04-14T11:43:52.122Z,3003.75
2023-04-14T11:44:52.089Z,3020.62
2023-04-14T11:45:52.192Z,2829.37
2023-04-14T11:46:52.273Z,2626.87
2023-04-14T11:47:52.081Z,2643.75
2023-04-14T11:48:58.305Z,2823.75
2023-04-14T11:49:52.249Z,2790.00
2023-04-14T11:50:52.041Z,3178.12
2023-04-14T11:51:52.042Z,3442.50
2023-04-14T11:52:52.024Z,3408.75
2023-04-14T11:53:52.017Z,3358.12
2023-04-14T11:54:52.060Z,3138.75
2023-04-14T11:55:52.202Z,3076.87
2023-04-14T11:56:58.029Z,3054.37
2023-04-14T11:57:51.992Z,2998.12
2023-04-14T11:58:51.973Z,3015.00
2023-04-14T11:59:51.975Z,3043.12
2023-04-14T12:00:55.745Z,2896.87
2023-04-14T12:01:51.978Z,2863.12
2023-04-14T12:02:52.432Z,3273.75
2023-04-14T12:03:52.080Z,860.62
2023-04-14T12:04:52.113Z,3555.00
2023-04-14T12:05:51.913Z,3628.12
2023-04-14T12:06:53.186Z,3543.75
2023-04-14T12:07:51.892Z,3420.00
2023-04-14T12:08:51.900Z,3600.00
2023-04-14T12:09:51.884Z,3560.62
2023-04-14T12:10:51.870Z,3459.37
2023-04-14T12:11:51.865Z,1209.37
2023-04-14T12:12:51.883Z,1254.37
2023-04-14T12:13:51.841Z,810.00
2023-04-14T12:14:51.843Z,652.50
2023-04-14T12:15:51.928Z,646.87
2023-04-14T12:16:54.284Z,686.25
2023-04-14T12:17:51.815Z,736.87
2023-04-14T12:18:51.810Z,3105.00
2023-04-14T12:19:51.798Z,3982.50
2023-04-14T12:20:51.807Z,3774.37
2023-04-14T12:21:51.770Z,3774.37
2023-04-14T12:22:52.001Z,3712.50
2023-04-14T12:23:51.765Z,3667.50
2023-04-14T12:24:51.759Z,3690.00
2023-04-14T12:25:51.737Z,3690.00
2023-04-14T12:26:51.739Z,3656.25
2023-04-14T12:27:51.729Z,3684.37
2023-04-14T12:29:26.453Z,3487.50
2023-04-14T12:30:26.414Z,2857.50
2023-04-14T12:31:32.486Z,2840.62
2023-04-14T12:32:32.442Z,3285.00
2023-04-14T12:33:26.371Z,3543.75
2023-04-14T12:34:28.618Z,3645.00
2023-04-14T12:35:32.377Z,3628.12
2023-04-14T12:36:40.630Z,3678.75
2023-04-14T12:37:27.400Z,3588.75
2023-04-14T12:38:26.331Z,3656.25
2023-04-14T12:39:32.336Z,3622.50
2023-04-14T12:40:26.517Z,1890.00
2023-04-14T12:41:32.320Z,793.12
2023-04-14T12:42:32.303Z,1665.00
2023-04-14T12:43:26.299Z,1507.50
2023-04-14T12:44:26.298Z,1035.00
2023-04-14T12:45:32.309Z,2632.50
2023-04-14T12:46:32.318Z,4050.00
2023-04-14T12:47:26.301Z,4055.62
2023-04-14T12:48:26.254Z,793.12
2023-04-14T12:49:26.244Z,669.37
2023-04-14T12:50:26.245Z,630.00
2023-04-14T12:51:26.238Z,663.75
2023-04-14T12:52:26.214Z,838.12
2023-04-14T12:53:26.442Z,1310.62
2023-04-14T12:54:26.398Z,1552.50
2023-04-14T12:55:26.198Z,967.50
2023-04-14T12:56:26.369Z,1828.12
2023-04-14T12:57:27.452Z,900.00
2023-04-14T12:58:26.153Z,804.37
2023-04-14T12:59:26.145Z,4708.12
2023-04-14T13:00:32.154Z,697.50
2023-04-14T13:02:09.025Z,4629.37
2023-04-14T13:03:09.126Z,1102.50
2023-04-14T13:04:09.250Z,798.75
2023-04-14T13:05:08.911Z,3453.75
2023-04-14T13:06:08.895Z,4224.37
2023-04-14T13:07:08.894Z,4488.75
2023-04-14T13:08:08.891Z,787.50
2023-04-14T13:09:08.887Z,742.50
2023-04-14T13:10:09.072Z,2025.00
2023-04-14T13:11:08.853Z,4308.75
2023-04-14T13:12:08.846Z,4275.00
2023-04-14T13:13:08.845Z,2728.12
2023-04-14T13:14:08.813Z,787.50
2023-04-14T13:15:08.822Z,776.25
2023-04-14T13:16:13.415Z,669.37
2023-04-14T13:17:10.074Z,742.50
2023-04-14T13:18:08.919Z,630.00
2023-04-14T13:19:08.781Z,781.87
2023-04-14T13:20:08.966Z,3498.75
2023-04-14T13:21:08.767Z,3645.00
2023-04-14T13:22:08.750Z,3886.87
2023-04-14T13:23:08.744Z,4190.62
2023-04-14T13:25:01.511Z,4286.25
2023-04-14T13:25:55.493Z,4336.87
2023-04-14T13:26:55.472Z,4297.50
2023-04-14T13:27:55.485Z,3870.00
2023-04-14T13:28:55.459Z,3886.87
2023-04-14T13:29:55.458Z,4291.87
2023-04-14T13:30:55.653Z,4297.50
2023-04-14T13:31:55.761Z,4522.50
2023-04-14T13:32:55.740Z,4033.12
2023-04-14T13:33:55.460Z,708.75
2023-04-14T13:34:55.416Z,4455.00
2023-04-14T13:36:01.431Z,1068.75
2023-04-14T13:36:55.401Z,4365.00
2023-04-14T13:37:55.598Z,1473.75
2023-04-14T13:38:55.377Z,731.25
2023-04-14T13:39:55.382Z,905.62
2023-04-14T13:41:01.376Z,3920.62
2023-04-14T13:42:54.207Z,3847.50
2023-04-14T13:43:54.392Z,3886.87
2023-04-14T13:44:54.178Z,3881.25
2023-04-14T13:45:54.655Z,3976.87
2023-04-14T13:46:54.276Z,4010.62
2023-04-14T13:48:00.415Z,4033.12
2023-04-14T13:48:54.252Z,3960.00
2023-04-14T13:49:54.171Z,3999.37
2023-04-14T13:50:54.122Z,3954.37
2023-04-14T13:51:54.141Z,3982.50
2023-04-14T13:52:54.117Z,821.25
2023-04-14T13:53:54.310Z,4213.12
2023-04-14T13:54:54.095Z,1243.12
2023-04-14T13:56:00.307Z,1226.25
2023-04-14T13:57:00.104Z,1006.87
2023-04-14T13:57:55.179Z,3633.75
2023-04-14T13:58:54.075Z,4263.75
2023-04-14T14:00:00.071Z,776.25
2023-04-14T14:00:54.069Z,2812.50
2023-04-14T14:01:54.231Z,4415.62
2023-04-14T14:02:54.211Z,4258.12
2023-04-14T14:03:54.122Z,4258.12
2023-04-14T14:04:54.016Z,4252.50
2023-04-14T14:05:54.074Z,3943.12
2023-04-14T14:06:53.996Z,4314.37
2023-04-14T14:07:54.004Z,4325.62
2023-04-14T14:08:53.975Z,4342.50
2023-04-14T14:09:53.976Z,4117.50
2023-04-14T14:10:53.968Z,4005.00
2023-04-14T14:12:00.574Z,3903.75
2023-04-14T14:12:53.959Z,3931.87
2023-04-14T14:13:53.958Z,3605.62
2023-04-14T14:14:53.936Z,3498.75
2023-04-14T14:15:54.038Z,3639.37
2023-04-14T14:16:59.926Z,3211.87
2023-04-14T14:17:54.045Z,3290.62
2023-04-14T14:18:53.901Z,821.25
2023-04-14T14:19:54.103Z,3903.75
2023-04-14T14:20:59.945Z,3616.87
2023-04-14T14:21:59.891Z,3121.87
2023-04-14T14:22:53.877Z,1968.75
2023-04-14T14:24:00.073Z,3420.00
2023-04-14T14:24:56.670Z,624.37
2023-04-14T14:25:55.640Z,540.00
2023-04-14T14:26:53.840Z,601.87
2023-04-14T14:27:53.834Z,1968.75
2023-04-14T14:28:53.818Z,2767.50
2023-04-14T14:29:53.822Z,2958.75
2023-04-14T14:30:53.832Z,2964.37
2023-04-14T14:31:53.889Z,3234.37
2023-04-14T14:32:53.830Z,3870.00
2023-04-14T14:33:53.790Z,3774.37
2023-04-14T14:34:53.773Z,3183.75
2023-04-14T14:35:59.775Z,3290.62
2023-04-14T14:36:53.782Z,3301.87
2023-04-14T14:37:53.747Z,3211.87
2023-04-14T14:38:53.751Z,3031.87
2023-04-14T14:39:53.932Z,2857.50
2023-04-14T14:40:53.917Z,3240.00
2023-04-14T14:41:53.723Z,3206.25
2023-04-14T14:42:53.713Z,3015.00
2023-04-14T14:43:53.694Z,3144.37
2023-04-14T14:44:53.713Z,3166.87
2023-04-14T14:45:53.682Z,2767.50
2023-04-14T14:46:59.705Z,2514.37
2023-04-14T14:47:53.700Z,1170.00
2023-04-14T14:48:53.664Z,2413.12
2023-04-14T14:50:00.359Z,703.12
2023-04-14T14:50:54.681Z,641.25
2023-04-14T14:51:53.635Z,590.62
2023-04-14T14:52:53.605Z,2036.25
2023-04-14T14:54:08.839Z,573.75
2023-04-14T14:54:54.616Z,1951.87
2023-04-14T14:55:53.548Z,2373.75
2023-04-14T14:56:53.547Z,2733.75
2023-04-14T14:57:53.540Z,2998.12
2023-04-14T14:58:53.534Z,2908.12
2023-04-14T14:59:53.514Z,2930.62
2023-04-14T15:00:53.715Z,3588.75
2023-04-14T15:01:59.583Z,3729.37
2023-04-14T15:02:53.712Z,3217.50
2023-04-14T15:03:53.589Z,2975.62
2023-04-14T15:04:53.496Z,2998.12
2023-04-14T15:05:59.478Z,686.25
2023-04-14T15:06:53.468Z,585.00
2023-04-14T15:07:53.451Z,838.12
2023-04-14T15:08:59.489Z,748.12
2023-04-14T15:09:53.441Z,483.75
2023-04-14T15:10:53.644Z,450.00
2023-04-14T15:11:59.437Z,500.62
2023-04-14T15:12:53.435Z,680.62
2023-04-14T15:13:53.424Z,3504.37
2023-04-14T15:14:53.421Z,3673.12
2023-04-14T15:15:53.405Z,1203.75
2023-04-14T15:16:53.411Z,2998.12
2023-04-14T15:17:53.419Z,3431.25
2023-04-14T15:18:53.405Z,444.37
2023-04-14T15:19:53.387Z,427.50
2023-04-14T15:20:53.586Z,399.37
2023-04-14T15:21:53.474Z,720.00
2023-04-14T15:22:53.368Z,2795.62
2023-04-14T15:23:53.561Z,1816.87
2023-04-14T15:24:53.611Z,433.12
2023-04-14T15:25:53.351Z,427.50
2023-04-14T15:26:53.335Z,466.87
2023-04-14T15:27:53.325Z,461.25
2023-04-14T15:28:53.328Z,2458.12
2023-04-14T15:29:53.307Z,3099.37
2023-04-14T15:30:53.303Z,3183.75
2023-04-14T15:31:53.363Z,3048.75
2023-04-14T15:32:53.323Z,2880.00
2023-04-14T15:33:53.280Z,3015.00
2023-04-14T15:34:53.469Z,3043.12
2023-04-14T15:35:53.267Z,2998.12
2023-04-14T15:36:53.263Z,3003.75
2023-04-14T15:37:53.241Z,444.37
2023-04-14T15:38:53.252Z,804.37
2023-04-14T15:39:53.229Z,2711.25
2023-04-14T15:40:59.266Z,2829.37
2023-04-14T15:41:53.213Z,2761.87
2023-04-14T15:42:53.204Z,2677.50
2023-04-14T15:43:53.190Z,393.75
2023-04-14T15:44:53.201Z,337.50
2023-04-14T15:45:53.261Z,2745.00
2023-04-14T15:46:53.164Z,2722.50
2023-04-14T15:47:53.226Z,2806.87
2023-04-14T15:48:53.136Z,2857.50
2023-04-14T15:50:10.372Z,371.25
2023-04-14T15:50:54.176Z,1991.25
2023-04-14T15:51:53.313Z,326.25
2023-04-14T15:52:53.106Z,2688.75
2023-04-14T15:53:53.273Z,388.12
2023-04-14T15:54:59.296Z,2598.75
2023-04-14T15:55:53.272Z,2548.12
2023-04-14T15:56:59.105Z,2587.50
2023-04-14T15:57:53.056Z,2520.00
2023-04-14T15:58:53.041Z,2407.50
2023-04-14T15:59:53.243Z,2368.12
2023-04-14T16:00:53.041Z,1816.87
2023-04-14T16:01:53.107Z,1051.87
2023-04-14T16:02:53.173Z,2430.00
2023-04-14T16:03:53.105Z,2396.25
2023-04-14T16:04:59.029Z,2356.87
2023-04-14T16:05:58.977Z,2261.25
2023-04-14T16:06:52.968Z,2328.75
2023-04-14T16:07:52.953Z,2475.00
2023-04-14T16:08:58.991Z,2458.12
2023-04-14T16:09:52.932Z,2385.00
2023-04-14T16:10:52.931Z,2373.75
2023-04-14T16:11:52.918Z,2238.75
2023-04-14T16:12:52.933Z,2210.62
2023-04-14T16:13:52.932Z,2250.00
2023-04-14T16:14:52.899Z,2221.87
2023-04-14T16:15:52.910Z,2193.75
2023-04-14T16:16:58.895Z,2171.25
2023-04-14T16:17:53.077Z,2261.25
2023-04-14T16:18:58.891Z,2261.25
2023-04-14T16:19:52.839Z,2250.00
2023-04-14T16:20:52.838Z,2238.75
2023-04-14T16:21:52.834Z,2227.50
2023-04-14T16:22:53.030Z,2188.12
2023-04-14T16:23:52.809Z,2137.50
2023-04-14T16:24:52.809Z,2131.87
2023-04-14T16:25:52.793Z,2053.12
2023-04-14T16:26:52.894Z,1985.62
2023-04-14T16:27:52.775Z,1929.37
2023-04-14T16:28:58.802Z,1895.62
2023-04-14T16:29:52.955Z,1946.25
2023-04-14T16:30:52.752Z,1906.87
2023-04-14T16:31:52.903Z,1783.12
2023-04-14T16:32:52.776Z,1659.37
2023-04-14T16:33:52.716Z,1743.75
2023-04-14T16:34:52.717Z,1884.37
2023-04-14T16:35:52.713Z,1884.37
2023-04-14T16:36:52.702Z,1833.75
2023-04-14T16:37:52.680Z,1811.25
2023-04-14T16:38:52.696Z,1710.00
2023-04-14T16:39:52.665Z,1687.50
2023-04-14T16:40:52.654Z,1468.12
2023-04-14T16:41:52.845Z,1355.62
2023-04-14T16:42:52.660Z,1625.62
2023-04-14T16:43:52.623Z,1546.87
2023-04-14T16:44:52.661Z,1063.12
2023-04-14T16:45:52.804Z,427.50
2023-04-14T16:46:52.670Z,213.75
2023-04-14T16:47:58.680Z,191.25
2023-04-14T16:48:52.580Z,185.62